Terminal Aerodrome Forecast
Issued by NWS

Current Version | Previous Version | Text Only | Print | Product List | Glossary On
Versions: 1 2 3 4 5 6 7 8 9 10 11 12 13 14 15 16 17 18 19 20 21
967
FTUS46 KMTR 261737
TAFMRY
TAF
KMRY 261737Z 2618/2718 27004KT P6SM BKN080 OVC090
     FM261900 22008KT P6SM BKN040 OVC100
     FM270300 21004KT P6SM -RA SCT008 BKN012 OVC025
     FM270800 25007KT P6SM VCSH BKN025 OVC050
     FM271500 28007G14KT P6SM BKN050 BKN100=

USA.gov is the U.S. government's official web portal to all federal, state and local government web resources and services.